Garneill, Montana
Current Conditions -  °F | °C
As of 1:54 AM on Monday 20 Oct 2014 (Local Time) from KLWT Reporting Station
Clear Clear  
Wind Chill: 38°   Ceiling: Unl
Heat Index: 43°   Visibility: 10mi
Dew Point: 30°   Wind: 8mph
Humidity: 60%   Direction: 140°SE
Pressure: 29.94"   Gusts: NA
Location:  46.75°N, 109.75°W
Report Text: KLWT 200754Z AUTO 14007KT 10SM CLR 06/M01 A2994 RMK AO2 SLP118 T00611011 $
Loading
Personal Weather Stations






























Interactive Weather Map
Tropical Storm Tracking
New forecast layout! Learn more

10-Day Weather Forecast

Advertisements
Track Severe Weather on mobile